Time;durP1;ratioP1;P1;durP2;ratioP2;P2;SDS_P1;SDS_P2;PMS_P1;PMS_P2;Temp;Humidity;BMP_temperature;BMP_pressure;BME280_temperature;BME280_humidity;BME280_pressure;Samples;Min_cycle;Max_cycle;Signal;HPM_P1;HPM_P2
2021/07/24 00:01:12;;;;;;;9.38;8.48;;;;;;;16.89;70.13;96546.44;1781015;79;21223;-77
2021/07/24 00:03:38;;;;;;;9.30;8.28;;;;;;;16.85;70.41;96543.45;1781475;79;20884;-77
2021/07/24 00:06:04;;;;;;;9.20;8.30;;;;;;;16.82;70.57;96543.89;1745222;81;20980;-77
2021/07/24 00:08:30;;;;;;;11.18;8.25;;;;;;;16.81;70.80;96547.53;1736392;81;21909;-77
2021/07/24 00:10:56;;;;;;;9.60;8.10;;;;;;;16.80;70.93;96549.36;1736796;80;20981;-77
2021/07/24 00:13:22;;;;;;;10.95;9.58;;;;;;;16.80;71.21;96549.36;1752552;79;20959;-77
2021/07/24 00:15:47;;;;;;;9.63;8.63;;;;;;;16.78;71.35;96542.73;1762750;79;21256;-77
2021/07/24 00:18:13;;;;;;;10.25;9.13;;;;;;;16.74;71.20;96544.95;1762490;79;20991;-78
2021/07/24 00:20:39;;;;;;;9.95;8.75;;;;;;;16.69;71.41;96538.25;1761607;79;20944;-78
2021/07/24 00:23:07;;;;;;;9.48;8.28;;;;;;;16.66;71.58;96533.41;1766600;79;20994;-78
2021/07/24 00:25:35;;;;;;;11.53;8.25;;;;;;;16.63;71.53;96535.67;1756651;79;20953;-78
2021/07/24 00:28:02;;;;;;;9.88;8.85;;;;;;;16.61;71.67;96534.58;1759703;79;20977;-78
2021/07/24 00:30:28;;;;;;;9.23;8.30;;;;;;;16.62;71.84;96538.80;1744708;79;20967;-78
2021/07/24 00:32:53;;;;;;;10.43;8.73;;;;;;;16.60;71.92;96534.28;1767420;79;21408;-78
2021/07/24 00:35:19;;;;;;;10.25;8.48;;;;;;;16.57;71.87;96532.06;1751225;79;21300;-78
2021/07/24 00:37:45;;;;;;;8.80;7.90;;;;;;;16.52;72.06;96537.17;1769542;79;20912;-78
2021/07/24 00:40:14;;;;;;;8.48;7.58;;;;;;;16.50;72.15;96534.76;1753122;80;20968;-78
2021/07/24 00:42:40;;;;;;;8.63;7.30;;;;;;;16.48;72.02;96531.55;1748016;81;21038;-78
2021/07/24 00:45:07;;;;;;;9.35;7.58;;;;;;;16.47;72.19;96531.27;1770314;79;21045;-77
2021/07/24 00:47:37;;;;;;;9.25;8.23;;;;;;;16.46;72.22;96536.22;1740917;81;20988;-78
2021/07/24 00:50:04;;;;;;;9.23;7.12;;;;;;;16.44;72.29;96531.70;1733708;81;21041;-77
2021/07/24 00:52:30;;;;;;;7.85;7.05;;;;;;;16.46;72.37;96538.03;1722640;80;20958;-78
2021/07/24 00:54:57;;;;;;;8.13;7.25;;;;;;;16.44;72.45;96535.63;1764948;80;20995;-78
2021/07/24 00:57:23;;;;;;;8.33;7.25;;;;;;;16.41;72.44;96532.09;1761330;79;20922;-78
2021/07/24 00:59:49;;;;;;;10.78;7.30;;;;;;;16.38;72.32;96534.36;1778966;79;21215;-78
2021/07/24 01:02:14;;;;;;;7.90;7.10;;;;;;;16.37;72.36;96534.06;1761972;79;20944;-78
2021/07/24 01:04:40;;;;;;;9.13;7.60;;;;;;;16.35;72.39;96536.09;1757614;80;21024;-78
2021/07/24 01:07:06;;;;;;;8.38;7.47;;;;;;;16.34;72.49;96527.94;1772637;79;21718;-78
2021/07/24 01:09:33;;;;;;;8.85;7.95;;;;;;;16.32;72.56;96536.53;1763915;79;21027;-78
2021/07/24 01:12:02;;;;;;;10.40;7.85;;;;;;;16.29;72.73;96530.41;1753605;80;20944;-78
2021/07/24 01:14:29;;;;;;;7.97;7.10;;;;;;;16.25;72.93;96532.63;1740585;81;20939;-78
2021/07/24 01:16:54;;;;;;;10.03;8.20;;;;;;;16.21;73.06;96532.77;1739893;81;21312;-78
2021/07/24 01:19:20;;;;;;;9.18;7.90;;;;;;;16.19;73.23;96538.73;1748120;80;20987;-77
2021/07/24 01:21:49;;;;;;;9.80;7.72;;;;;;;16.16;73.41;96533.92;1758909;80;20995;-78
2021/07/24 01:24:16;;;;;;;10.00;8.58;;;;;;;16.15;73.13;96531.02;1730145;81;21299;-78
2021/07/24 01:26:44;;;;;;;10.03;9.03;;;;;;;16.14;73.20;96534.14;1749226;80;20939;-78
2021/07/24 01:29:14;;;;;;;9.20;8.30;;;;;;;16.12;73.20;96528.82;1764548;80;20984;-78
2021/07/24 01:31:41;;;;;;;9.68;8.38;;;;;;;16.10;73.27;96523.77;1745989;80;20991;-78
2021/07/24 01:34:08;;;;;;;9.95;8.30;;;;;;;16.09;73.54;96528.71;1724335;81;20973;-78
2021/07/24 01:36:34;;;;;;;10.98;8.35;;;;;;;16.09;73.52;96523.98;1754642;80;20961;-77
2021/07/24 01:39:00;;;;;;;10.88;8.70;;;;;;;16.09;73.54;96526.59;1723670;82;20962;-77
2021/07/24 01:41:25;;;;;;;10.93;9.48;;;;;;;16.08;73.58;96525.80;1743734;80;20917;-78
2021/07/24 01:43:51;;;;;;;11.78;9.05;;;;;;;16.06;73.75;96527.83;1757350;80;20935;-78
2021/07/24 01:46:17;;;;;;;10.03;8.78;;;;;;;16.03;73.88;96523.53;1767769;80;20958;-78
2021/07/24 01:48:47;;;;;;;8.25;7.45;;;;;;;15.99;74.21;96520.53;1760354;80;21384;-78
2021/07/24 01:53:57;;;;;;;8.25;7.28;;;;;;;15.96;74.39;96520.16;1751797;80;20967;-78
2021/07/24 01:56:24;;;;;;;9.30;7.45;;;;;;;15.93;74.44;96510.08;1750627;80;20971;-77
2021/07/24 01:58:50;;;;;;;9.78;7.62;;;;;;;15.96;74.22;96513.10;1750638;81;20951;-78
2021/07/24 02:01:17;;;;;;;8.45;7.58;;;;;;;15.95;74.25;96513.32;1762195;80;20903;-77
2021/07/24 02:03:45;;;;;;;8.58;7.65;;;;;;;15.92;74.24;96510.59;1744174;80;20946;-78
2021/07/24 02:06:16;;;;;;;8.25;7.08;;;;;;;15.90;74.40;96506.07;1750290;80;20919;-77
2021/07/24 02:08:49;;;;;;;8.03;7.23;;;;;;;15.90;74.46;96506.07;1720822;82;21292;-78
2021/07/24 02:11:16;;;;;;;9.28;8.03;;;;;;;15.90;74.38;96508.69;1751180;80;20991;-78
2021/07/24 02:13:41;;;;;;;8.15;7.35;;;;;;;15.90;74.37;96504.25;1758647;80;20987;-79
2021/07/24 02:16:07;;;;;;;8.05;7.25;;;;;;;15.91;74.38;96504.55;1755429;80;21007;-79
2021/07/24 02:18:34;;;;;;;9.00;7.15;;;;;;;15.93;74.39;96506.95;1752834;79;21054;-79
2021/07/24 02:21:01;;;;;;;8.18;7.08;;;;;;;15.91;74.54;96505.86;1761909;80;20992;-78
2021/07/24 02:23:26;;;;;;;9.10;7.40;;;;;;;15.90;74.63;96500.83;1759287;80;20938;-79
2021/07/24 02:25:52;;;;;;;8.70;7.17;;;;;;;15.89;74.85;96496.61;1761484;80;20979;-77
2021/07/24 02:28:18;;;;;;;9.35;7.60;;;;;;;15.89;74.96;96500.03;1774670;79;20946;-77
2021/07/24 02:30:44;;;;;;;8.05;7.25;;;;;;;15.91;75.10;96504.55;1742018;80;20896;-77
2021/07/24 02:33:10;;;;;;;9.60;7.10;;;;;;;15.91;75.07;96500.61;1770236;80;20920;-77
2021/07/24 02:35:36;;;;;;;8.03;6.67;;;;;;;15.89;75.20;96502.65;1767698;80;21213;-76
2021/07/24 02:38:01;;;;;;;8.13;7.03;;;;;;;15.88;74.93;96504.97;1752838;80;21202;-77
2021/07/24 02:40:27;;;;;;;9.05;7.10;;;;;;;15.86;75.28;96504.38;1758998;80;21010;-77
2021/07/24 02:42:54;;;;;;;9.38;6.87;;;;;;;15.84;75.14;96506.92;1750303;80;20991;-78
2021/07/24 02:45:21;;;;;;;9.58;6.70;;;;;;;15.84;75.21;96499.06;1738418;81;21026;-77
2021/07/24 02:47:46;;;;;;;7.00;6.30;;;;;;;15.81;75.25;96495.05;1759048;79;20923;-77
2021/07/24 02:50:12;;;;;;;7.10;6.35;;;;;;;15.88;75.26;96508.10;1766780;80;20991;-77
2021/07/24 02:52:39;;;;;;;8.50;7.60;;;;;;;15.87;75.39;96504.68;1759490;80;21240;-77
2021/07/24 02:55:05;;;;;;;7.42;6.60;;;;;;;15.87;75.47;96503.88;1765580;80;20938;-77
2021/07/24 02:57:31;;;;;;;8.18;6.40;;;;;;;15.86;75.53;96504.38;1765503;79;20911;-77
2021/07/24 02:59:56;;;;;;;7.47;6.47;;;;;;;15.83;75.43;96499.58;1768569;79;20983;-77
2021/07/24 03:02:22;;;;;;;9.55;5.92;;;;;;;15.83;75.57;96500.89;1774655;79;21323;-77
2021/07/24 03:04:48;;;;;;;7.05;6.35;;;;;;;15.82;75.39;96501.09;1766123;79;20969;-77
2021/07/24 03:07:14;;;;;;;8.20;6.58;;;;;;;15.82;75.45;96498.48;1765416;80;21119;-77
2021/07/24 03:09:40;;;;;;;7.80;6.65;;;;;;;15.84;75.41;96501.69;1761911;79;21395;-77
2021/07/24 03:12:06;;;;;;;8.40;6.45;;;;;;;15.82;75.39;96500.59;1773968;79;20987;-76
2021/07/24 03:14:32;;;;;;;7.50;6.80;;;;;;;15.79;75.41;96503.64;1754675;80;21289;-77
2021/07/24 03:16:57;;;;;;;7.55;6.62;;;;;;;15.81;75.63;96504.73;1755479;80;21030;-77
2021/07/24 03:19:23;;;;;;;6.80;6.10;;;;;;;15.81;75.80;96506.05;1761705;79;21016;-78
2021/07/24 03:21:49;;;;;;;7.70;6.33;;;;;;;15.82;75.80;96505.03;1723530;81;21270;-77
2021/07/24 03:24:15;;;;;;;7.40;6.33;;;;;;;15.83;75.84;96511.36;1734390;81;20998;-77
2021/07/24 03:26:41;;;;;;;8.30;6.37;;;;;;;15.84;75.78;96508.23;1742447;81;21286;-77
2021/07/24 03:29:08;;;;;;;9.38;6.80;;;;;;;15.86;75.72;96499.66;1764578;80;20959;-78
2021/07/24 03:31:34;;;;;;;7.95;7.15;;;;;;;15.89;75.77;96500.53;1735790;81;20969;-77
2021/07/24 03:34:00;;;;;;;7.60;6.58;;;;;;;15.90;75.77;96500.83;1764493;80;20908;-77
2021/07/24 03:36:25;;;;;;;8.98;7.30;;;;;;;15.89;76.03;96501.34;1768289;80;21244;-76
2021/07/24 03:38:51;;;;;;;6.80;6.10;;;;;;;15.88;75.86;96500.23;1766359;80;20977;-77
2021/07/24 03:41:17;;;;;;;7.92;6.87;;;;;;;15.90;75.92;96500.83;1765539;80;20968;-77
2021/07/24 03:43:43;;;;;;;7.30;6.55;;;;;;;15.93;76.13;96496.47;1744790;80;21360;-77
2021/07/24 03:46:16;;;;;;;7.55;6.83;;;;;;;15.97;76.16;96496.88;1765418;80;21019;-77
2021/07/24 03:48:45;;;;;;;9.80;7.80;;;;;;;16.00;76.12;96502.99;1764332;80;21328;-77
2021/07/24 03:51:12;;;;;;;8.90;7.45;;;;;;;16.00;76.09;96494.63;1764969;80;21223;-77
2021/07/24 03:53:38;;;;;;;8.18;7.12;;;;;;;16.00;76.25;96496.44;1768034;80;20987;-77
2021/07/24 03:56:05;;;;;;;9.45;7.75;;;;;;;15.98;76.39;96499.28;1762919;80;21261;-77
2021/07/24 03:58:31;;;;;;;8.73;7.80;;;;;;;15.98;76.38;96499.78;1737837;80;21029;-77
2021/07/24 04:00:57;;;;;;;9.13;7.37;;;;;;;15.97;76.67;96500.30;1747804;80;20934;-77
2021/07/24 04:03:25;;;;;;;9.38;8.38;;;;;;;15.97;76.86;96495.05;1765791;80;21469;-77
2021/07/24 04:05:51;;;;;;;8.98;8.08;;;;;;;15.98;76.79;96497.97;1738091;81;20965;-76
2021/07/24 04:08:17;;;;;;;11.63;8.60;;;;;;;15.98;76.70;96501.09;1764548;80;20939;-78
2021/07/24 04:10:43;;;;;;;9.28;8.35;;;;;;;15.98;76.71;96502.41;1736018;81;21030;-77
2021/07/24 04:13:09;;;;;;;8.90;7.87;;;;;;;15.96;76.77;96503.13;1728278;81;21001;-77
2021/07/24 04:15:36;;;;;;;8.65;7.17;;;;;;;15.97;76.91;96505.53;1699507;81;21042;-77
2021/07/24 04:18:04;;;;;;;9.20;7.65;;;;;;;15.98;76.95;96508.45;1729345;81;20958;-77
2021/07/24 04:20:30;;;;;;;8.93;7.20;;;;;;;15.98;77.10;96501.09;1753995;79;20953;-77
2021/07/24 04:22:56;;;;;;;9.48;7.78;;;;;;;16.01;77.20;96504.09;1773430;80;20945;-77
2021/07/24 04:25:21;;;;;;;9.03;8.13;;;;;;;16.04;77.24;96507.59;1760547;79;21266;-77
2021/07/24 04:27:48;;;;;;;10.75;8.53;;;;;;;16.07;77.32;96497.98;1749722;81;20939;-77
2021/07/24 04:30:14;;;;;;;9.23;7.92;;;;;;;16.10;77.41;96501.99;1745245;81;21042;-77
2021/07/24 04:32:39;;;;;;;8.85;7.97;;;;;;;16.12;77.51;96498.67;1744884;81;21022;-77
2021/07/24 04:35:06;;;;;;;8.60;7.70;;;;;;;16.15;77.66;96492.49;1749644;81;20991;-77
2021/07/24 04:37:32;;;;;;;8.50;7.60;;;;;;;16.18;77.61;96494.68;1771808;79;20954;-77
2021/07/24 04:39:57;;;;;;;9.45;8.25;;;;;;;16.21;77.71;96489.00;1757527;81;21002;-77
2021/07/24 04:42:24;;;;;;;10.23;8.40;;;;;;;16.24;77.72;96489.08;1728496;81;21041;-77
2021/07/24 04:44:50;;;;;;;9.00;8.10;;;;;;;16.25;77.79;96492.00;1744212;81;21042;-77
2021/07/24 04:47:15;;;;;;;9.75;8.33;;;;;;;16.27;77.85;96487.84;1776500;79;20966;-77
2021/07/24 04:49:50;;;;;;;8.48;7.17;;;;;;;16.31;77.90;96488.53;1776690;79;20976;-77
2021/07/24 04:52:17;;;;;;;8.73;7.83;;;;;;;16.38;77.99;96493.70;1771609;79;21339;-77
2021/07/24 04:54:43;;;;;;;9.20;6.97;;;;;;;16.45;77.86;96489.23;1740318;81;20951;-78
2021/07/24 04:57:09;;;;;;;8.68;7.65;;;;;;;16.51;78.03;96490.47;1756252;81;20942;-77
2021/07/24 04:59:37;;;;;;;9.25;8.35;;;;;;;16.61;78.14;96493.12;1748689;81;20928;-78
2021/07/24 05:02:04;;;;;;;8.85;7.95;;;;;;;16.66;78.26;96501.13;1776428;80;20908;-77
2021/07/24 05:04:31;;;;;;;9.00;8.10;;;;;;;16.70;78.32;96489.20;1745755;80;20980;-77
2021/07/24 05:06:56;;;;;;;8.40;7.10;;;;;;;16.75;78.42;96495.39;1774387;79;20993;-77
2021/07/24 05:09:22;;;;;;;8.25;7.17;;;;;;;16.81;78.46;96492.43;1729292;81;20955;-77
2021/07/24 05:11:48;;;;;;;9.20;7.12;;;;;;;16.87;78.62;96496.80;1728441;81;20926;-77
2021/07/24 05:14:14;;;;;;;8.38;7.50;;;;;;;16.93;78.69;96499.08;1772475;80;20933;-77
2021/07/24 05:16:39;;;;;;;9.05;7.35;;;;;;;16.98;78.79;96499.22;1772417;79;21216;-77
2021/07/24 05:19:06;;;;;;;8.85;7.22;;;;;;;17.06;78.90;96500.22;1778163;79;20943;-77
2021/07/24 05:21:32;;;;;;;7.95;7.15;;;;;;;17.12;78.80;96498.56;1770032;79;20973;-76
2021/07/24 05:23:58;;;;;;;7.40;6.60;;;;;;;17.17;78.90;96495.55;1776310;79;20892;-78
2021/07/24 05:26:23;;;;;;;7.05;6.35;;;;;;;17.24;78.83;96496.78;1777534;79;20959;-77
2021/07/24 05:28:49;;;;;;;9.08;7.55;;;;;;;17.27;79.00;96494.53;1784732;79;20954;-77
2021/07/24 05:31:18;;;;;;;7.90;7.10;;;;;;;17.33;78.98;96490.22;1770505;79;20879;-77
2021/07/24 05:33:44;;;;;;;9.43;7.80;;;;;;;17.40;79.09;96490.41;1782807;79;20933;-77
2021/07/24 05:36:10;;;;;;;9.45;8.55;;;;;;;17.46;79.19;96483.48;1772765;79;20914;-77
2021/07/24 05:38:37;;;;;;;9.95;8.75;;;;;;;17.50;79.10;96489.89;1766834;79;20973;-77
2021/07/24 05:41:03;;;;;;;10.63;8.63;;;;;;;17.54;79.07;96492.36;1773330;79;21054;-77
2021/07/24 05:43:29;;;;;;;9.75;8.10;;;;;;;17.59;79.22;96485.14;1773033;79;21242;-77
2021/07/24 05:45:55;;;;;;;8.90;8.08;;;;;;;17.66;79.27;96479.27;1763428;79;20931;-77
2021/07/24 05:48:20;;;;;;;10.82;8.35;;;;;;;17.71;79.28;96482.05;1771680;79;20937;-77
2021/07/24 05:50:46;;;;;;;10.18;8.30;;;;;;;17.76;79.32;96483.52;1773031;79;20890;-77
2021/07/24 05:53:12;;;;;;;10.55;9.43;;;;;;;17.80;79.29;96480.72;1773068;79;20977;-77
2021/07/24 05:55:38;;;;;;;10.72;9.73;;;;;;;17.88;79.23;96478.27;1775644;79;20962;-77
2021/07/24 05:58:09;;;;;;;10.72;9.20;;;;;;;17.95;79.19;96478.47;1743399;81;21853;-78
2021/07/24 06:00:35;;;;;;;11.43;10.25;;;;;;;18.00;79.27;96483.05;1749806;80;20966;-78
2021/07/24 06:03:00;;;;;;;11.80;9.08;;;;;;;18.05;79.32;96477.91;1753006;80;20976;-77
2021/07/24 06:05:26;;;;;;;10.45;9.45;;;;;;;18.10;79.32;96481.19;1769074;79;21297;-77
2021/07/24 06:07:52;;;;;;;12.13;9.80;;;;;;;18.14;79.32;96479.19;1772114;79;20956;-79
2021/07/24 06:10:18;;;;;;;12.13;10.60;;;;;;;18.23;79.27;96480.98;1741781;81;20967;-79
2021/07/24 06:12:48;;;;;;;12.23;10.45;;;;;;;18.28;78.98;96475.31;1775916;79;20923;-79
2021/07/24 06:15:13;;;;;;;13.03;11.70;;;;;;;18.37;78.95;96484.97;1739885;81;20895;-80
2021/07/24 06:17:39;;;;;;;14.73;12.98;;;;;;;18.43;78.86;96484.08;1738603;81;20933;-79
2021/07/24 06:20:06;;;;;;;16.73;13.88;;;;;;;18.47;78.68;96483.10;1768997;79;20919;-79
2021/07/24 06:22:31;;;;;;;16.15;11.88;;;;;;;18.50;78.06;96482.13;1755433;80;20962;-80
2021/07/24 06:24:57;;;;;;;11.93;10.55;;;;;;;18.57;78.18;96485.45;1769890;79;21093;-79
2021/07/24 06:27:23;;;;;;;13.68;10.85;;;;;;;18.64;78.46;96481.92;1743167;81;21260;-80
2021/07/24 06:29:49;;;;;;;17.50;14.53;;;;;;;18.69;78.38;96481.52;1742843;81;20899;-79
2021/07/24 06:32:15;;;;;;;15.60;13.70;;;;;;;18.76;77.64;96478.78;1764650;79;20907;-80
2021/07/24 06:34:40;;;;;;;19.05;16.77;;;;;;;18.85;77.99;96485.27;1765296;79;20942;-80
2021/07/24 06:37:06;;;;;;;22.52;20.48;;;;;;;18.93;77.95;96491.52;1742011;81;20968;-80
2021/07/24 06:39:32;;;;;;;19.98;15.90;;;;;;;19.02;77.24;96482.73;1746133;81;20984;-80
2021/07/24 06:41:58;;;;;;;17.52;14.63;;;;;;;19.11;77.11;96487.41;1744167;81;21040;-79
2021/07/24 06:44:24;;;;;;;17.30;15.32;;;;;;;19.21;76.89;96489.98;1739224;81;21009;-80
2021/07/24 06:46:50;;;;;;;15.75;14.18;;;;;;;19.32;76.92;96487.81;1740506;81;20947;-80
2021/07/24 06:49:17;;;;;;;17.30;14.07;;;;;;;19.39;77.07;96492.44;1734653;81;21044;-80
2021/07/24 06:51:43;;;;;;;16.17;13.85;;;;;;;19.44;76.75;96488.58;1734676;81;21395;-80
2021/07/24 06:54:08;;;;;;;18.05;15.08;;;;;;;19.55;76.65;96484.34;1712480;82;20958;-80
2021/07/24 06:56:34;;;;;;;17.62;15.00;;;;;;;19.60;75.22;96485.22;1700788;82;20963;-80
2021/07/24 06:59:00;;;;;;;17.85;16.05;;;;;;;19.65;74.87;96482.67;1701515;82;20998;-80
2021/07/24 07:01:26;;;;;;;16.60;14.80;;;;;;;19.73;74.56;96478.34;1735256;81;20908;-80
2021/07/24 07:03:51;;;;;;;15.15;13.53;;;;;;;19.83;74.60;96483.50;1735129;81;20911;-79
2021/07/24 07:06:17;;;;;;;17.37;15.63;;;;;;;19.91;75.30;96487.09;1734972;81;21040;-80
2021/07/24 07:08:43;;;;;;;18.80;14.50;;;;;;;19.97;74.54;96487.44;1704602;82;21235;-80
2021/07/24 07:11:09;;;;;;;17.27;14.75;;;;;;;20.02;73.66;96486.23;1704971;82;20990;-80
2021/07/24 07:13:34;;;;;;;16.48;13.40;;;;;;;20.12;73.78;96489.53;1735868;81;20943;-77
2021/07/24 07:16:06;;;;;;;14.13;12.63;;;;;;;20.20;73.97;96479.92;1740026;81;21307;-78
2021/07/24 07:18:32;;;;;;;;;;;;;;;20.26;74.68;96483.70;1737564;81;21261;-77
2021/07/24 07:20:58;;;;;;;15.18;13.48;;;;;;;20.29;74.15;96485.06;1737154;81;20096;-79
2021/07/24 07:23:24;;;;;;;15.65;14.05;;;;;;;20.33;73.99;96488.28;1735481;81;21021;-79
2021/07/24 07:25:50;;;;;;;16.90;15.05;;;;;;;20.41;72.62;96491.09;1729583;81;21025;-79
2021/07/24 07:28:16;;;;;;;20.88;16.87;;;;;;;20.46;72.55;96489.04;1754415;79;20951;-79
2021/07/24 07:30:41;;;;;;;18.55;16.48;;;;;;;20.55;72.81;96493.68;1768873;79;21220;-79
2021/07/24 07:33:07;;;;;;;17.30;15.23;;;;;;;20.65;72.78;96493.02;1734969;81;20915;-78
2021/07/24 07:35:33;;;;;;;14.20;12.80;;;;;;;20.71;72.50;96492.06;1729131;81;21002;-77
2021/07/24 07:37:59;;;;;;;16.25;13.98;;;;;;;20.72;72.49;96495.50;1711897;82;21006;-78
2021/07/24 07:40:25;;;;;;;14.35;12.85;;;;;;;20.79;73.53;96485.55;1689922;84;21330;-78
2021/07/24 07:42:51;;;;;;;16.37;14.70;;;;;;;20.82;73.53;96488.50;1781543;80;20987;-77
2021/07/24 07:45:17;;;;;;;16.90;14.73;;;;;;;20.87;72.42;96492.55;1778329;80;20988;-78
2021/07/24 07:47:42;;;;;;;15.75;14.15;;;;;;;20.93;72.30;96494.20;1788555;80;20979;-78
2021/07/24 07:50:10;;;;;;;18.32;16.35;;;;;;;21.03;72.17;96487.47;1778870;80;20924;-78
2021/07/24 07:52:36;;;;;;;16.90;15.18;;;;;;;21.05;71.25;96482.73;1748420;81;20931;-78
2021/07/24 07:55:02;;;;;;;15.72;13.95;;;;;;;21.10;71.17;96482.78;1732930;81;20933;-77
2021/07/24 07:57:29;;;;;;;18.45;16.60;;;;;;;21.15;71.62;96489.45;1745445;81;20978;-80
2021/07/24 07:59:55;;;;;;;18.15;15.13;;;;;;;21.20;70.56;96490.33;1744433;81;21807;-78
2021/07/24 08:02:21;;;;;;;16.87;14.75;;;;;;;21.32;70.36;96488.13;1743872;81;21335;-80
2021/07/24 08:04:49;;;;;;;19.30;15.28;;;;;;;21.42;70.46;96489.54;1714853;82;21029;-78
2021/07/24 08:07:16;;;;;;;15.43;13.70;;;;;;;21.51;69.67;96486.22;1748645;81;21385;-79
2021/07/24 08:09:42;;;;;;;15.28;13.78;;;;;;;21.61;70.20;96482.07;1718895;82;21058;-77
2021/07/24 08:12:08;;;;;;;14.33;12.88;;;;;;;21.67;70.97;96475.28;1735660;81;21324;-77
2021/07/24 08:14:34;;;;;;;17.50;14.10;;;;;;;21.76;70.75;96480.37;1712302;82;20992;-79
2021/07/24 08:16:59;;;;;;;13.83;12.30;;;;;;;21.80;70.85;96475.38;1739812;81;20926;-78
2021/07/24 08:19:26;;;;;;;13.75;12.47;;;;;;;21.78;69.06;96466.38;1738613;81;20969;-79
2021/07/24 08:21:53;;;;;;;13.83;12.30;;;;;;;21.91;68.75;96468.34;1706685;82;21354;-78
2021/07/24 08:24:18;;;;;;;13.90;12.37;;;;;;;22.02;68.87;96472.16;1739892;81;20934;-78
2021/07/24 08:26:44;;;;;;;14.65;13.08;;;;;;;22.13;68.38;96471.23;1710904;82;20996;-78
2021/07/24 08:29:10;;;;;;;13.72;12.33;;;;;;;22.28;69.02;96465.23;1746567;81;21304;-77
2021/07/24 08:31:36;;;;;;;13.85;12.05;;;;;;;22.23;69.10;96477.12;1744312;81;20982;-77
2021/07/24 08:34:01;;;;;;;15.30;13.50;;;;;;;22.08;69.45;96480.44;1743574;81;20952;-77
2021/07/24 08:36:27;;;;;;;12.82;11.30;;;;;;;22.22;70.21;96479.49;1739084;81;21343;-78
2021/07/24 08:38:53;;;;;;;12.85;11.57;;;;;;;22.39;69.64;96476.18;1708827;82;20916;-78
2021/07/24 08:41:18;;;;;;;13.60;11.85;;;;;;;22.57;69.39;96479.47;1739947;81;20978;-78
2021/07/24 08:43:45;;;;;;;14.30;12.13;;;;;;;22.59;69.35;96480.81;1743487;81;20926;-78
2021/07/24 08:46:12;;;;;;;13.32;12.03;;;;;;;22.73;69.11;96473.22;1742926;81;21477;-78
2021/07/24 08:48:38;;;;;;;13.05;11.05;;;;;;;22.90;68.64;96465.92;1744610;81;20932;-79
2021/07/24 08:51:03;;;;;;;13.32;11.97;;;;;;;23.03;66.92;96468.11;1721317;82;21248;-79
2021/07/24 08:53:29;;;;;;;12.63;11.43;;;;;;;23.19;67.15;96460.22;1721721;82;20935;-78
2021/07/24 08:56:05;;;;;;;13.93;11.88;;;;;;;23.30;66.90;96457.36;1737385;81;20915;-78
2021/07/24 08:58:33;;;;;;;12.88;11.68;;;;;;;23.51;66.51;96464.83;1735652;81;20963;-78
2021/07/24 09:00:59;;;;;;;12.88;11.68;;;;;;;23.47;65.95;96464.30;1733211;81;20903;-79
2021/07/24 09:03:25;;;;;;;11.97;10.72;;;;;;;23.30;66.14;96465.31;1734084;81;20964;-78
2021/07/24 09:05:51;;;;;;;13.75;10.28;;;;;;;23.46;66.67;96464.83;1735874;81;21010;-78
2021/07/24 09:08:17;;;;;;;13.10;10.80;;;;;;;23.55;66.10;96469.88;1706859;82;21263;-79
2021/07/24 09:10:45;;;;;;;11.43;10.32;;;;;;;23.64;66.51;96471.53;1711391;82;21010;-78
2021/07/24 09:13:10;;;;;;;12.95;11.15;;;;;;;23.74;65.95;96464.90;1743436;81;20908;-78
2021/07/24 09:15:36;;;;;;;13.32;11.20;;;;;;;23.85;65.92;96463.86;1736872;81;20932;-78
2021/07/24 09:18:02;;;;;;;14.20;12.28;;;;;;;23.91;65.43;96457.48;1731202;81;20991;-78
2021/07/24 09:20:28;;;;;;;11.60;9.95;;;;;;;23.95;65.55;96459.91;1726978;81;20945;-79
2021/07/24 09:22:54;;;;;;;13.28;10.95;;;;;;;24.02;65.11;96453.52;1757907;79;21341;-78
2021/07/24 09:25:21;;;;;;;12.63;11.18;;;;;;;23.85;65.45;96454.58;1763590;79;21257;-78
2021/07/24 09:27:54;;;;;;;12.55;11.40;;;;;;;23.74;64.13;96456.94;1762199;79;21376;-78
2021/07/24 09:30:33;;;;;;;12.53;10.55;;;;;;;23.87;65.02;96460.41;1737158;81;20930;-78
2021/07/24 09:33:12;;;;;;;12.10;11.00;;;;;;;23.97;64.19;96458.84;1773413;79;20927;-78
2021/07/24 09:35:47;;;;;;;12.20;10.78;;;;;;;24.08;63.93;96451.13;1744311;79;20924;-78
2021/07/24 09:38:18;;;;;;;12.15;10.72;;;;;;;24.19;63.29;96454.84;1740982;81;20988;-78
2021/07/24 09:40:46;;;;;;;10.48;9.45;;;;;;;24.35;63.85;96449.03;1777197;79;20986;-78
2021/07/24 09:43:36;;;;;;;10.35;9.35;;;;;;;24.44;62.91;96446.64;1757450;79;20931;-79
2021/07/24 09:46:18;;;;;;;10.40;9.40;;;;;;;24.52;60.23;96444.22;1766015;79;21021;-79
2021/07/24 09:48:47;;;;;;;11.22;10.13;;;;;;;24.59;61.82;96444.50;1780033;80;20970;-79
2021/07/24 09:51:14;;;;;;;11.43;9.73;;;;;;;24.73;61.55;96439.67;1773566;80;21307;-78
2021/07/24 09:53:45;;;;;;;10.82;9.38;;;;;;;24.72;61.71;96431.95;1778155;79;20987;-78
2021/07/24 09:56:14;;;;;;;10.93;9.60;;;;;;;24.56;60.89;96435.17;1769951;79;20943;-78
2021/07/24 09:58:44;;;;;;;12.20;10.08;;;;;;;24.61;60.39;96431.20;1770693;79;20967;-77
2021/07/24 10:01:15;;;;;;;11.25;9.80;;;;;;;24.78;61.26;96428.23;1774443;80;21010;-78
2021/07/24 10:03:42;;;;;;;9.65;8.83;;;;;;;24.91;61.98;96425.00;1762858;79;20999;-78
2021/07/24 10:06:17;;;;;;;11.65;10.28;;;;;;;25.00;60.91;96427.37;1768001;80;21549;-77
2021/07/24 10:08:45;;;;;;;9.83;8.85;;;;;;;25.10;59.76;96423.35;1778549;80;20969;-79
2021/07/24 10:11:11;;;;;;;10.00;9.00;;;;;;;24.93;57.79;96424.73;1738279;79;21290;-79
2021/07/24 10:13:42;;;;;;;9.78;8.80;;;;;;;24.93;57.97;96420.74;1745145;81;20972;-78
2021/07/24 10:16:08;;;;;;;9.88;8.08;;;;;;;24.99;56.53;96419.11;1746810;81;20988;-78
2021/07/24 10:18:34;;;;;;;9.20;8.40;;;;;;;25.07;56.37;96415.93;1752249;81;21305;-78
2021/07/24 10:21:00;;;;;;;8.98;7.92;;;;;;;25.22;58.56;96419.05;1774796;79;20999;-78
2021/07/24 10:23:25;;;;;;;9.63;8.63;;;;;;;25.03;56.15;96418.84;1775484;79;20928;-78
2021/07/24 10:26:03;;;;;;;9.85;8.73;;;;;;;24.94;56.89;96415.16;1736335;81;21007;-78
2021/07/24 10:28:56;;;;;;;9.65;8.45;;;;;;;24.90;57.27;96418.09;1734178;81;21348;-79
2021/07/24 10:31:52;;;;;;;12.88;11.70;;;;;;;24.92;57.75;96419.16;1734024;81;21247;-78
2021/07/24 10:34:26;;;;;;;10.18;9.18;;;;;;;25.08;56.29;96417.52;1767063;79;20975;-78
2021/07/24 10:36:53;;;;;;;10.03;9.03;;;;;;;25.17;57.48;96427.03;1767519;80;20965;-78
2021/07/24 10:39:22;;;;;;;9.85;8.83;;;;;;;25.32;55.49;96432.28;1786669;79;20990;-78
2021/07/24 10:41:51;;;;;;;9.85;8.95;;;;;;;25.28;56.46;96421.14;1765053;80;21019;-79
2021/07/24 10:44:40;;;;;;;10.58;8.98;;;;;;;25.36;56.91;96421.88;1736456;81;20974;-79
2021/07/24 10:47:09;;;;;;;9.58;8.45;;;;;;;25.46;55.59;96423.70;1751793;80;21924;-78
2021/07/24 10:49:46;;;;;;;8.78;7.87;;;;;;;25.47;54.97;96416.77;1766131;80;21268;-78
2021/07/24 10:52:11;;;;;;;11.05;8.33;;;;;;;25.50;53.25;96418.08;1767447;80;20950;-78
2021/07/24 10:55:11;;;;;;;9.00;8.13;;;;;;;25.36;54.29;96420.55;1770366;80;20924;-78
2021/07/24 10:58:05;;;;;;;9.65;8.65;;;;;;;25.26;56.99;96419.30;1744492;81;21054;-78
2021/07/24 11:00:34;;;;;;;10.45;9.45;;;;;;;25.31;54.37;96424.58;1749325;81;20964;-78
2021/07/24 11:02:59;;;;;;;8.78;8.05;;;;;;;25.48;57.29;96414.38;1768872;80;20897;-78
2021/07/24 11:05:32;;;;;;;10.38;8.78;;;;;;;25.64;56.56;96416.40;1723729;81;21013;-77
2021/07/24 11:07:58;;;;;;;9.38;8.38;;;;;;;25.73;55.83;96418.23;1762532;80;21327;-77
2021/07/24 11:10:26;;;;;;;9.28;8.25;;;;;;;25.85;54.99;96405.09;1713505;82;21010;-78
2021/07/24 11:12:52;;;;;;;9.53;8.63;;;;;;;25.78;54.48;96404.63;1748997;81;21030;-78
2021/07/24 11:15:43;;;;;;;8.60;7.60;;;;;;;25.86;56.61;96411.47;1744212;81;20920;-78
2021/07/24 11:18:26;;;;;;;8.23;7.50;;;;;;;25.95;53.22;96401.03;1767064;80;20975;-78
2021/07/24 11:20:55;;;;;;;8.50;7.70;;;;;;;25.77;52.26;96403.04;1774067;80;20989;-79
2021/07/24 11:23:23;;;;;;;7.92;7.17;;;;;;;25.76;54.25;96398.80;1776962;80;20951;-79
2021/07/24 11:25:51;;;;;;;9.38;8.05;;;;;;;25.57;54.32;96402.63;1772931;79;21315;-79
2021/07/24 11:28:22;;;;;;;9.88;8.93;;;;;;;25.45;53.82;96390.98;1737262;80;20964;-79
2021/07/24 11:31:05;;;;;;;9.33;8.43;;;;;;;25.36;53.11;96405.92;1736944;81;20971;-80